KBKE/BKE METAR and TAF weather

Enter ICAO airport designator
Station Type Date Time Source
KBKE METAR 2019/04/25 21:53 UTC NOAA

KBKE 252153Z AUTO 09009KT 10SM CLR 21/00 A3005 RMK AO2 SLP174 T02110000


Station Type Date Time Source
KBKE Decoded METAR 2019/04/25 21:53 UTC NOAA

BAKER MUNICIPAL AIRPORT, OR, United States (KBKE) 44-50N 117-49W 1024M
Apr 25, 2019 - 05:53 PM EDT / 2019.04.25 2153 UTC
Wind: from the E (090 degrees) at 10 MPH (9 KT):0
Visibility: 10 mile(s):0
Sky conditions: clear
Temperature: 70.0 F (21.1 C)
Dew Point: 32.0 F (0.0 C)
Relative Humidity: 24%
Pressure (altimeter): 30.05 in. Hg (1017 hPa)
ob: KBKE 252153Z AUTO 09009KT 10SM CLR 21/00 A3005 RMK AO2 SLP174 T02110000
cycle: 22

Station Type Date Time Source
KBKE TAF 2019/04/25 18:42 UTC NOAA

TAF KBKE 251740Z 2518/2618 VRB06KT P6SM SCT080 SCT200
FM260600 VRB06KT P6SM VCSH SCT080 BKN150
FM261600 33015G25KT P6SM SCT080 SCT150

Example: see airport list